Time;durP1;ratioP1;P1;durP2;ratioP2;P2;SDS_P1;SDS_P2;PMS_P1;PMS_P2;Temp;Humidity;BMP_temperature;BMP_pressure;BME280_temperature;BME280_humidity;BME280_pressure;Samples;Min_cycle;Max_cycle;Signal;HPM_P1;HPM_P2
2022/05/22 00:02:16;;;;;;;2.67;2.35;;;;;;;23.39;43.50;101571.72;5008389;28;20471;-60
2022/05/22 00:04:41;;;;;;;3.65;1.75;;;;;;;23.39;43.12;101565.56;5028462;28;20030;-60
2022/05/22 00:07:07;;;;;;;5.22;2.17;;;;;;;23.40;43.21;101572.59;5007800;28;20154;-60
2022/05/22 00:09:34;;;;;;;4.72;2.17;;;;;;;23.38;43.11;101575.22;5016637;28;20108;-61
2022/05/22 00:11:59;;;;;;;4.60;2.38;;;;;;;23.39;43.20;101571.72;5000252;28;20028;-60
2022/05/22 00:14:28;;;;;;;3.97;2.30;;;;;;;23.40;43.14;101578.75;5034050;28;20037;-60
2022/05/22 00:16:56;;;;;;;9.48;2.83;;;;;;;23.40;42.93;101577.84;5016421;28;20124;-60
2022/05/22 00:19:24;;;;;;;3.13;2.20;;;;;;;23.38;43.09;101574.31;5013649;28;20033;-60
2022/05/22 00:21:50;;;;;;;2.25;2.05;;;;;;;23.37;43.09;101572.56;5023474;28;20041;-60
2022/05/22 00:24:18;;;;;;;2.97;2.67;;;;;;;23.40;43.09;101575.22;5012027;28;20036;-60
2022/05/22 00:26:43;;;;;;;3.83;2.47;;;;;;;23.38;43.31;101566.44;5027696;28;20060;-60
2022/05/22 00:29:08;;;;;;;2.97;2.45;;;;;;;23.39;43.06;101571.72;4991162;28;20030;-60
2022/05/22 00:31:34;;;;;;;3.45;2.47;;;;;;;23.38;43.47;101574.31;5005373;28;20036;-60
2022/05/22 00:33:59;;;;;;;3.58;2.30;;;;;;;23.39;43.88;101570.84;5020160;28;20065;-60
2022/05/22 00:36:25;;;;;;;6.25;2.22;;;;;;;23.32;42.59;101560.25;5018089;28;20046;-60
2022/05/22 00:38:50;;;;;;;5.00;2.35;;;;;;;23.36;42.79;101565.53;5006908;28;20037;-60
2022/05/22 00:41:16;;;;;;;4.28;2.60;;;;;;;23.38;42.91;101569.06;5007903;28;20033;-60
2022/05/22 00:43:43;;;;;;;2.92;2.30;;;;;;;23.39;43.74;101570.84;5023924;28;20038;-60
2022/05/22 00:46:13;;;;;;;2.00;1.80;;;;;;;23.39;43.27;101570.84;5026973;28;20033;-60
2022/05/22 00:48:40;;;;;;;3.22;2.40;;;;;;;23.38;42.97;101563.81;5005320;28;20038;-60
2022/05/22 00:51:12;;;;;;;2.30;1.90;;;;;;;23.36;43.25;101562.91;4996166;28;20049;-60
2022/05/22 00:53:59;;;;;;;4.57;2.33;;;;;;;23.36;43.45;101555.03;5012859;28;20044;-60
2022/05/22 00:56:31;;;;;;;5.85;1.85;;;;;;;23.34;43.30;101553.25;5021610;28;20057;-60
2022/05/22 00:58:56;;;;;;;4.38;2.15;;;;;;;23.34;43.34;101553.25;5020714;28;20391;-60
2022/05/22 01:01:22;;;;;;;3.17;2.08;;;;;;;23.36;42.66;101549.78;5014095;28;20041;-60
2022/05/22 01:03:47;;;;;;;2.40;2.15;;;;;;;23.34;42.97;101553.25;5004582;28;20394;-60
2022/05/22 01:06:24;;;;;;;5.15;2.50;;;;;;;23.34;43.33;101553.25;5000073;28;20068;-60
2022/05/22 01:08:50;;;;;;;2.80;1.92;;;;;;;23.36;43.21;101557.66;5008323;28;20376;-61
2022/05/22 01:11:19;;;;;;;2.45;1.75;;;;;;;23.36;42.92;101561.19;5009263;28;20030;-60
2022/05/22 01:13:52;;;;;;;3.80;2.22;;;;;;;23.31;43.11;101545.34;5016239;28;20030;-60
2022/05/22 01:16:18;;;;;;;5.70;1.83;;;;;;;23.33;43.29;101550.63;5010144;28;20038;-60
2022/05/22 01:18:46;;;;;;;1.85;1.75;;;;;;;23.34;43.42;101558.53;5013466;28;20052;-60
2022/05/22 01:21:17;;;;;;;1.40;1.30;;;;;;;23.34;42.81;101558.53;5026787;28;20389;-60
2022/05/22 01:23:43;;;;;;;2.22;1.80;;;;;;;23.34;43.03;101553.25;5007483;28;20037;-60
2022/05/22 01:26:08;;;;;;;4.80;2.63;;;;;;;23.34;42.71;101555.91;5001612;28;20041;-60
2022/05/22 01:28:36;;;;;;;4.00;2.20;;;;;;;23.33;43.01;101556.75;5015348;28;20441;-60
2022/05/22 01:31:02;;;;;;;2.92;1.98;;;;;;;23.34;43.40;101553.25;5027840;28;20129;-60
2022/05/22 01:33:27;;;;;;;5.20;2.03;;;;;;;23.33;42.99;101556.75;5011596;28;20116;-61
2022/05/22 01:35:55;;;;;;;3.63;2.00;;;;;;;23.33;43.40;101555.91;5016832;28;20041;-61
2022/05/22 01:38:20;;;;;;;7.50;2.38;;;;;;;23.34;42.96;101553.25;5011667;28;20033;-60
2022/05/22 01:40:46;;;;;;;2.33;2.13;;;;;;;23.27;42.89;101535.66;5021930;28;20364;-60
2022/05/22 01:43:11;;;;;;;1.77;1.67;;;;;;;23.33;43.13;101548.88;5009130;28;20037;-60
2022/05/22 01:45:37;;;;;;;2.58;2.38;;;;;;;23.34;42.97;101553.25;4995283;28;20072;-61
2022/05/22 01:48:02;;;;;;;4.40;2.25;;;;;;;23.29;43.24;101533.94;5009961;28;20049;-60
2022/05/22 01:50:29;;;;;;;3.17;1.75;;;;;;;23.34;43.28;101540.13;5028407;28;20029;-60
2022/05/22 01:52:54;;;;;;;1.63;1.52;;;;;;;23.36;43.23;101539.25;5009338;28;20037;-60
2022/05/22 01:55:20;;;;;;;1.98;1.85;;;;;;;23.30;43.43;101527.81;5000841;28;20489;-61
2022/05/22 01:57:45;;;;;;;2.10;1.83;;;;;;;23.33;43.38;101530.47;5006949;28;20029;-60
2022/05/22 02:00:14;;;;;;;5.40;1.52;;;;;;;23.34;42.83;101536.63;5023063;28;20056;-60
2022/05/22 02:02:39;;;;;;;2.15;1.48;;;;;;;23.33;42.56;101541.00;4994188;28;20083;-60
2022/05/22 02:05:05;;;;;;;3.58;2.22;;;;;;;23.33;42.87;101540.13;5012456;28;20117;-60
2022/05/22 02:10:15;;;;;;;5.28;2.13;;;;;;;23.33;43.26;101541.00;5025289;28;20091;-61
2022/05/22 02:12:40;;;;;;;3.05;1.95;;;;;;;23.34;42.95;101548.00;5012797;28;20046;-60
2022/05/22 02:15:07;;;;;;;3.33;1.58;;;;;;;23.32;43.31;101539.22;5009736;28;20109;-61
2022/05/22 02:17:36;;;;;;;2.28;1.95;;;;;;;23.34;43.30;101545.38;4989073;28;20040;-60
2022/05/22 02:20:02;;;;;;;3.38;1.52;;;;;;;23.34;43.05;101542.75;5070732;22;20403;-54
2022/05/22 02:22:32;;;;;;;5.97;1.80;;;;;;;23.29;42.79;101533.94;4996586;28;20090;-54
2022/05/22 02:24:57;;;;;;;1.50;1.40;;;;;;;23.34;42.97;101542.75;5030917;28;20459;-56
2022/05/22 02:27:22;;;;;;;3.67;1.45;;;;;;;23.33;43.21;101535.72;5013437;28;20036;-54
2022/05/22 02:29:48;;;;;;;5.55;2.05;;;;;;;23.34;43.03;101542.75;5009955;28;20041;-56
2022/05/22 02:32:13;;;;;;;2.72;2.05;;;;;;;23.32;42.76;101539.22;5027684;28;20033;-55
2022/05/22 02:34:39;;;;;;;6.88;2.13;;;;;;;23.33;42.98;101535.72;5013338;28;20029;-55
2022/05/22 02:37:07;;;;;;;1.60;1.50;;;;;;;23.32;43.09;101544.47;4993237;28;20100;-56
2022/05/22 02:39:32;;;;;;;2.20;1.80;;;;;;;23.32;43.36;101538.31;5013247;28;20485;-55
2022/05/22 02:42:03;;;;;;;2.92;1.58;;;;;;;23.32;43.43;101544.47;4992549;28;20041;-55
2022/05/22 02:44:28;;;;;;;1.13;1.13;;;;;;;23.25;43.37;101521.63;4996093;28;20033;-56
2022/05/22 02:46:56;;;;;;;6.32;2.17;;;;;;;23.30;42.74;101530.44;5013513;28;20037;-55
2022/05/22 02:49:21;;;;;;;1.75;1.40;;;;;;;23.33;42.99;101535.72;5012383;28;20390;-55
2022/05/22 02:51:46;;;;;;;1.98;1.38;;;;;;;23.31;42.73;101532.22;5012859;28;20037;-55
2022/05/22 02:54:14;;;;;;;8.20;2.70;;;;;;;23.32;42.80;101528.72;4996991;28;20110;-56
2022/05/22 02:56:40;;;;;;;2.45;1.83;;;;;;;23.33;43.03;101533.09;5020337;28;20313;-56
2022/05/22 02:59:10;;;;;;;1.85;1.75;;;;;;;23.22;43.21;101500.53;5000404;28;20402;-56
2022/05/22 03:01:36;;;;;;;2.17;1.85;;;;;;;23.23;42.75;101507.56;5012573;28;20379;-57
2022/05/22 03:04:03;;;;;;;1.38;1.27;;;;;;;23.25;43.56;101508.50;4997910;28;20060;-56
2022/05/22 03:06:40;;;;;;;5.93;1.80;;;;;;;23.32;42.83;101523.47;5034565;28;20049;-56
2022/05/22 03:09:10;;;;;;;3.25;1.85;;;;;;;23.33;42.81;101530.47;5016785;28;20381;-57
2022/05/22 03:11:37;;;;;;;2.15;1.48;;;;;;;23.33;42.62;101524.34;5016964;28;20021;-53
2022/05/22 03:14:06;;;;;;;4.35;1.55;;;;;;;23.33;42.48;101529.59;5016605;28;20036;-54
2022/05/22 03:16:34;;;;;;;1.15;1.13;;;;;;;23.31;42.56;101532.22;5034416;28;20034;-56
2022/05/22 03:19:03;;;;;;;2.17;1.50;;;;;;;23.31;43.04;101537.47;5011685;28;20045;-57
2022/05/22 03:21:29;;;;;;;1.73;1.63;;;;;;;23.32;42.80;101549.75;5013452;28;20087;-58
2022/05/22 03:23:54;;;;;;;1.48;1.38;;;;;;;23.32;43.25;101544.47;5012992;28;20033;-58
2022/05/22 03:26:20;;;;;;;1.63;1.42;;;;;;;23.29;43.07;101538.28;5020760;28;20502;-54
2022/05/22 03:28:47;;;;;;;1.95;1.50;;;;;;;23.30;42.85;101535.69;5013657;28;20037;-55
2022/05/22 03:31:16;;;;;;;4.43;1.48;;;;;;;23.31;42.80;101534.84;5030266;28;20482;-54
2022/05/22 03:33:41;;;;;;;2.00;1.58;;;;;;;23.24;42.48;101524.22;5026698;28;20074;-53
2022/05/22 03:36:06;;;;;;;1.90;1.48;;;;;;;23.31;43.18;101537.47;5033913;28;20471;-55
2022/05/22 03:38:32;;;;;;;2.30;1.70;;;;;;;23.31;42.88;101531.31;5011778;28;20294;-55
2022/05/22 03:41:00;;;;;;;1.48;1.25;;;;;;;23.29;43.12;101528.69;5013002;28;20029;-53
2022/05/22 03:43:25;;;;;;;1.80;1.70;;;;;;;23.31;42.68;101532.22;5015259;28;20044;-56
2022/05/22 03:45:51;;;;;;;2.60;1.60;;;;;;;23.31;42.85;101542.72;5014588;28;20033;-54
2022/05/22 03:48:16;;;;;;;3.60;1.50;;;;;;;23.29;42.92;101533.94;5019253;28;20025;-53
2022/05/22 03:50:41;;;;;;;1.23;1.13;;;;;;;23.31;43.13;101542.72;5026501;28;20060;-54
2022/05/22 03:53:07;;;;;;;3.10;2.05;;;;;;;23.30;42.70;101535.69;5009095;28;20033;-57
2022/05/22 03:55:32;;;;;;;2.05;1.50;;;;;;;23.30;43.04;101538.31;5008127;28;20593;-56
2022/05/22 03:57:58;;;;;;;1.30;0.98;;;;;;;23.29;42.70;101533.03;5034136;28;20036;-54
2022/05/22 04:00:24;;;;;;;2.42;1.50;;;;;;;23.30;42.70;101530.44;5009638;28;20429;-55
2022/05/22 04:02:51;;;;;;;1.10;1.10;;;;;;;23.30;43.16;101535.69;5014837;28;20037;-55
2022/05/22 04:05:16;;;;;;;1.85;1.38;;;;;;;23.29;42.73;101533.94;5013082;28;20478;-53
2022/05/22 04:07:45;;;;;;;8.45;1.70;;;;;;;23.30;42.99;101530.44;5011683;28;20040;-57
2022/05/22 04:10:12;;;;;;;2.50;1.23;;;;;;;23.29;42.76;101523.44;5013036;28;20475;-54
2022/05/22 04:12:38;;;;;;;3.88;1.30;;;;;;;23.31;42.88;101537.47;5014077;28;20381;-55
2022/05/22 04:15:08;;;;;;;2.13;1.55;;;;;;;23.30;43.23;101530.44;5014594;28;20033;-52
2022/05/22 04:17:34;;;;;;;8.40;1.42;;;;;;;23.29;42.64;101528.69;5030102;28;20037;-57
2022/05/22 04:19:59;;;;;;;2.53;1.60;;;;;;;23.29;42.95;101533.94;5032712;28;20485;-56
2022/05/22 04:22:27;;;;;;;1.63;1.27;;;;;;;23.30;43.12;101530.44;5015174;28;20044;-57
2022/05/22 04:27:38;;;;;;;6.13;1.37;;;;;;;23.30;42.98;101535.69;5025717;28;20075;-54
2022/05/22 04:30:06;;;;;;;2.53;1.15;;;;;;;23.29;42.49;101539.19;5014958;28;20058;-57
2022/05/22 04:32:31;;;;;;;1.40;1.27;;;;;;;23.29;42.82;101533.03;5031077;28;20445;-55
2022/05/22 04:34:56;;;;;;;3.70;2.00;;;;;;;23.31;42.87;101545.34;5015154;28;20106;-57
2022/05/22 04:37:22;;;;;;;2.85;1.20;;;;;;;23.31;42.54;101542.72;5012128;28;20030;-55
2022/05/22 04:39:47;;;;;;;0.90;0.90;;;;;;;23.31;42.72;101547.97;5030733;28;20463;-56
2022/05/22 04:42:15;;;;;;;1.75;1.65;;;;;;;23.30;42.60;101546.22;5011743;28;20398;-55
2022/05/22 04:44:40;;;;;;;1.60;1.48;;;;;;;23.33;43.24;101546.25;5014933;28;20463;-57
2022/05/22 04:47:05;;;;;;;4.43;1.40;;;;;;;23.31;42.72;101547.97;5014204;28;20087;-57
2022/05/22 04:49:34;;;;;;;3.05;1.73;;;;;;;23.31;42.93;101547.97;4996386;28;20475;-57
2022/05/22 04:51:59;;;;;;;4.93;1.92;;;;;;;23.31;43.21;101541.81;5030742;28;20037;-57
2022/05/22 04:54:25;;;;;;;4.30;1.55;;;;;;;23.31;43.16;101545.34;5014821;28;20420;-58
2022/05/22 04:56:52;;;;;;;1.58;1.45;;;;;;;23.29;43.13;101538.28;4996945;28;20033;-55
2022/05/22 04:59:20;;;;;;;1.20;1.17;;;;;;;23.29;42.86;101539.19;5010687;28;20116;-55
2022/05/22 05:01:45;;;;;;;1.58;1.30;;;;;;;23.32;43.01;101543.59;5006890;28;20095;-54
2022/05/22 05:04:16;;;;;;;1.05;1.05;;;;;;;23.31;42.36;101547.06;5024934;28;20108;-56
2022/05/22 05:06:41;;;;;;;2.28;1.45;;;;;;;23.31;42.94;101553.22;5015298;28;20068;-55
2022/05/22 05:09:07;;;;;;;1.40;1.30;;;;;;;23.31;43.12;101553.22;5029772;28;20128;-56
2022/05/22 05:11:35;;;;;;;1.08;1.08;;;;;;;23.34;43.02;101555.03;5030101;28;20132;-56
2022/05/22 05:14:00;;;;;;;1.27;1.17;;;;;;;23.33;42.72;101551.50;5030819;28;20087;-56
2022/05/22 05:16:25;;;;;;;1.35;1.27;;;;;;;23.31;43.01;101547.06;5028349;28;20478;-54
2022/05/22 05:18:54;;;;;;;2.55;1.33;;;;;;;23.34;42.60;101553.25;5029411;28;20037;-57
2022/05/22 05:21:19;;;;;;;1.63;1.52;;;;;;;23.33;42.85;101551.50;5030960;28;20091;-57
2022/05/22 05:23:45;;;;;;;1.13;1.02;;;;;;;23.32;43.12;101549.75;5014401;28;20033;-57
2022/05/22 05:26:10;;;;;;;3.05;1.40;;;;;;;23.33;43.09;101546.25;5000815;28;20545;-51
2022/05/22 05:28:35;;;;;;;1.60;1.50;;;;;;;23.31;42.38;101540.09;5017694;28;20037;-55
2022/05/22 05:31:02;;;;;;;1.52;1.42;;;;;;;23.32;42.62;101549.75;5008921;28;20463;-55
2022/05/22 05:33:28;;;;;;;1.55;1.40;;;;;;;23.32;42.73;101547.09;4995410;28;20052;-51
2022/05/22 05:35:55;;;;;;;1.65;1.25;;;;;;;23.32;42.96;101552.38;5010507;28;20497;-56
2022/05/22 05:38:20;;;;;;;1.45;1.35;;;;;;;23.31;42.66;101553.22;5024436;28;20037;-57
2022/05/22 05:40:50;;;;;;;6.00;1.58;;;;;;;23.32;42.32;101555.00;5007226;28;20045;-54
2022/05/22 05:43:16;;;;;;;3.28;1.98;;;;;;;23.32;42.53;101555.00;5014109;28;20068;-57
2022/05/22 05:45:43;;;;;;;1.30;1.20;;;;;;;23.32;42.78;101555.00;5014347;28;20037;-56
2022/05/22 05:48:08;;;;;;;1.65;1.55;;;;;;;23.32;42.53;101552.38;4996654;28;20025;-55
2022/05/22 05:50:34;;;;;;;1.30;1.20;;;;;;;23.33;43.00;101555.91;5030396;28;20056;-57
2022/05/22 05:53:04;;;;;;;1.20;1.20;;;;;;;23.31;42.90;101553.22;4997527;28;20348;-57
2022/05/22 05:55:29;;;;;;;1.27;1.02;;;;;;;23.32;42.90;101555.00;5013508;28;20079;-57
2022/05/22 05:57:58;;;;;;;2.38;1.33;;;;;;;23.36;42.70;101555.03;5006511;28;20030;-57
2022/05/22 06:00:27;;;;;;;2.05;1.52;;;;;;;23.35;42.53;101559.41;5010339;28;20041;-57
2022/05/22 06:02:53;;;;;;;4.25;1.45;;;;;;;23.26;42.60;101544.41;4996082;28;20037;-57
2022/05/22 06:05:18;;;;;;;1.63;1.20;;;;;;;23.34;42.56;101553.25;5012825;28;21234;-55
2022/05/22 06:07:51;;;;;;;2.65;1.48;;;;;;;23.34;42.56;101552.41;5014707;28;20486;-55
2022/05/22 06:10:19;;;;;;;1.80;1.33;;;;;;;23.34;42.90;101547.16;5011448;28;20034;-56
2022/05/22 06:12:46;;;;;;;1.38;1.27;;;;;;;23.34;42.16;101553.25;4994803;28;20048;-53
2022/05/22 06:15:14;;;;;;;1.02;0.93;;;;;;;23.37;42.85;101546.28;5010763;28;20033;-55
2022/05/22 06:17:46;;;;;;;1.10;1.10;;;;;;;23.38;42.33;101553.28;5031289;28;20037;-55
2022/05/22 06:20:15;;;;;;;1.73;1.63;;;;;;;23.37;42.02;101546.28;5011653;28;20087;-55
2022/05/22 06:22:42;;;;;;;1.70;1.60;;;;;;;23.29;42.77;101533.94;4997686;28;20029;-58
2022/05/22 06:25:09;;;;;;;4.90;1.48;;;;;;;23.36;42.66;101540.16;5011446;28;20087;-57
2022/05/22 06:27:34;;;;;;;1.92;1.52;;;;;;;23.36;42.79;101534.00;5001122;28;20083;-58
2022/05/22 06:30:00;;;;;;;1.40;1.30;;;;;;;23.36;42.49;101539.25;5033581;28;20417;-57
2022/05/22 06:32:26;;;;;;;2.58;1.20;;;;;;;23.36;42.17;101539.25;5001553;28;20017;-57
2022/05/22 06:34:51;;;;;;;2.63;1.33;;;;;;;23.36;42.42;101539.25;5015317;28;20116;-56
2022/05/22 06:37:19;;;;;;;2.10;1.90;;;;;;;23.35;42.60;101538.41;5017938;28;20033;-57
2022/05/22 06:39:50;;;;;;;0.85;0.85;;;;;;;23.34;42.72;101542.75;5016231;28;20460;-54
2022/05/22 06:42:23;;;;;;;3.42;1.52;;;;;;;23.36;42.39;101534.00;5017955;28;20037;-56
2022/05/22 06:45:13;;;;;;;1.65;1.55;;;;;;;23.36;42.57;101534.91;5017163;28;20060;-57
2022/05/22 06:47:40;;;;;;;1.08;1.08;;;;;;;23.34;42.60;101537.50;5031184;28;20063;-57
2022/05/22 06:50:09;;;;;;;1.63;1.52;;;;;;;23.36;42.39;101544.50;5016805;28;20048;-57
2022/05/22 06:52:35;;;;;;;2.00;1.40;;;;;;;23.25;42.83;101526.88;5009461;28;20037;-54
2022/05/22 06:55:01;;;;;;;1.40;1.30;;;;;;;23.35;42.41;101543.66;5016900;28;20033;-54
2022/05/22 06:57:29;;;;;;;5.72;2.10;;;;;;;23.34;41.99;101537.50;4999352;28;20041;-54
2022/05/22 06:59:56;;;;;;;1.63;1.35;;;;;;;23.36;42.77;101544.50;5017178;28;20033;-57
2022/05/22 07:02:23;;;;;;;1.25;1.15;;;;;;;23.36;42.67;101545.41;4999700;28;20476;-56
2022/05/22 07:04:49;;;;;;;3.03;1.42;;;;;;;23.37;42.39;101556.78;4997779;28;20041;-54
2022/05/22 07:07:14;;;;;;;1.00;1.00;;;;;;;23.27;42.32;101540.03;5014821;28;20100;-55
2022/05/22 07:09:39;;;;;;;1.35;1.10;;;;;;;23.37;42.36;101551.53;5033096;28;20033;-55
2022/05/22 07:12:10;;;;;;;1.52;1.42;;;;;;;23.26;42.50;101539.16;5000285;28;20033;-56
2022/05/22 07:14:37;;;;;;;1.30;1.20;;;;;;;23.32;42.25;101552.38;5016432;28;20034;-55
2022/05/22 07:17:05;;;;;;;4.20;1.55;;;;;;;23.34;42.60;101553.25;5000321;28;20117;-57
2022/05/22 07:19:34;;;;;;;2.05;1.52;;;;;;;23.33;42.13;101562.00;4996462;28;20068;-55
2022/05/22 07:22:05;;;;;;;2.28;1.73;;;;;;;23.36;42.24;101553.31;5014300;28;20474;-53
2022/05/22 07:24:30;;;;;;;1.38;1.27;;;;;;;23.36;42.54;101552.41;5014495;28;20026;-55
2022/05/22 07:26:57;;;;;;;1.52;1.42;;;;;;;23.38;42.44;101542.78;5016155;28;20036;-57
2022/05/22 07:29:27;;;;;;;1.15;1.05;;;;;;;23.37;42.78;101541.91;5016281;28;20470;-57
2022/05/22 07:31:54;;;;;;;3.45;1.55;;;;;;;23.37;42.49;101538.38;5012694;28;20116;-51
2022/05/22 07:34:24;;;;;;;2.05;1.30;;;;;;;23.39;42.26;101534.03;5013189;28;20030;-53
2022/05/22 07:36:53;;;;;;;3.65;1.40;;;;;;;23.33;42.01;101519.97;4999603;28;20025;-57
2022/05/22 07:39:21;;;;;;;1.10;1.05;;;;;;;23.41;42.61;101532.31;5016819;28;20025;-55
2022/05/22 07:41:47;;;;;;;2.20;1.75;;;;;;;23.41;42.20;101527.03;5034280;28;20501;-55
2022/05/22 07:44:12;;;;;;;1.40;1.30;;;;;;;23.39;42.00;101527.03;5016091;28;20033;-57
2022/05/22 07:46:37;;;;;;;4.03;1.00;;;;;;;23.42;42.57;101524.44;5034471;28;20057;-55
2022/05/22 07:49:05;;;;;;;2.88;1.60;;;;;;;23.41;42.25;101513.91;5011766;28;20125;-59
2022/05/22 07:51:30;;;;;;;1.45;1.13;;;;;;;23.41;41.85;101521.78;5033020;28;20171;-57
2022/05/22 07:53:55;;;;;;;1.77;1.42;;;;;;;23.41;42.65;101521.78;5033565;28;20445;-57
2022/05/22 07:56:23;;;;;;;1.75;1.40;;;;;;;23.41;42.46;101527.03;5031963;28;20042;-54
2022/05/22 07:58:52;;;;;;;1.20;1.13;;;;;;;23.33;42.80;101514.72;5033270;28;20398;-57
2022/05/22 08:01:21;;;;;;;1.52;1.42;;;;;;;23.41;42.26;101521.78;5011701;28;20112;-52
2022/05/22 08:03:46;;;;;;;3.38;1.25;;;;;;;23.40;42.80;101525.28;5027969;28;20033;-53
2022/05/22 08:06:14;;;;;;;2.15;1.25;;;;;;;23.39;42.42;101524.41;5014008;28;20056;-58
2022/05/22 08:08:40;;;;;;;2.88;1.33;;;;;;;23.40;42.10;101520.03;5031723;28;20116;-56
2022/05/22 08:11:10;;;;;;;1.42;1.00;;;;;;;23.38;42.35;101517.41;4998472;28;20036;-60
2022/05/22 08:13:40;;;;;;;1.30;1.17;;;;;;;23.40;42.33;101520.03;5013172;28;20033;-60
2022/05/22 08:16:05;;;;;;;0.95;0.88;;;;;;;23.41;42.95;101517.44;4994795;28;20378;-58
2022/05/22 08:18:31;;;;;;;3.80;1.35;;;;;;;23.42;42.87;101518.28;5015249;28;20044;-59
2022/05/22 08:20:56;;;;;;;5.55;1.25;;;;;;;23.41;42.75;101516.53;5064739;22;20385;-63
2022/05/22 08:23:22;;;;;;;5.70;1.42;;;;;;;23.43;43.07;101514.78;5068237;28;20116;-67
2022/05/22 08:25:48;;;;;;;0.95;0.95;;;;;;;23.44;43.27;101511.28;5052813;28;20037;-72
2022/05/22 08:28:14;;;;;;;2.85;1.40;;;;;;;23.46;43.45;101509.56;5083921;28;20032;-66
2022/05/22 08:30:39;;;;;;;1.10;1.00;;;;;;;23.50;43.22;101500.84;5071212;28;20035;-62
2022/05/22 08:33:05;;;;;;;1.88;1.30;;;;;;;23.47;43.02;101500.81;5070185;28;20480;-62
2022/05/22 08:35:33;;;;;;;1.77;0.82;;;;;;;23.51;43.20;101502.59;5076792;28;20121;-62
2022/05/22 08:37:59;;;;;;;5.75;1.27;;;;;;;23.49;43.33;101501.72;5063553;28;20059;-62
2022/05/22 08:40:28;;;;;;;1.35;1.20;;;;;;;23.49;43.46;101493.81;5065158;28;20024;-62
2022/05/22 08:43:16;;;;;;;0.82;0.82;;;;;;;23.47;43.68;101500.81;5047512;28;20060;-61
2022/05/22 08:45:47;;;;;;;8.82;1.48;;;;;;;23.46;43.46;101504.31;5065988;28;20040;-62
2022/05/22 08:48:16;;;;;;;1.30;1.20;;;;;;;23.49;43.18;101515.75;5071171;28;20032;-62
2022/05/22 08:50:42;;;;;;;1.10;1.10;;;;;;;23.50;43.06;101516.63;5064069;28;20659;-62
2022/05/22 08:53:34;;;;;;;1.98;1.77;;;;;;;23.48;43.27;101515.72;5067293;28;20036;-62
2022/05/22 08:59:08;;;;;;;3.78;1.58;;;;;;;23.49;43.07;101517.47;5063300;28;20085;-64
2022/05/22 09:01:55;;;;;;;2.22;1.40;;;;;;;23.51;43.28;101513.13;5063957;28;21214;-62
2022/05/22 09:04:35;;;;;;;1.40;1.30;;;;;;;23.51;43.18;101507.84;5067506;28;20465;-62
2022/05/22 09:07:21;;;;;;;1.20;1.10;;;;;;;23.51;42.87;101502.59;5063839;28;20484;-62
2022/05/22 09:10:02;;;;;;;1.42;1.00;;;;;;;23.52;43.04;101509.63;5070364;28;20043;-62
2022/05/22 09:12:49;;;;;;;1.50;1.40;;;;;;;23.41;43.73;101479.72;5081948;28;20044;-62
2022/05/22 09:15:53;;;;;;;1.52;1.25;;;;;;;23.49;43.38;101499.06;5077809;28;20040;-62
2022/05/22 09:18:29;;;;;;;2.20;1.50;;;;;;;23.44;43.10;101496.41;5058337;28;20038;-62
2022/05/22 09:20:55;;;;;;;1.08;1.08;;;;;;;23.37;43.37;101488.44;5068548;28;20043;-62
2022/05/22 09:23:30;;;;;;;1.27;1.17;;;;;;;23.47;43.84;101511.31;5087404;28;20059;-62
2022/05/22 09:26:08;;;;;;;1.75;1.65;;;;;;;23.44;43.20;101512.19;5069888;28;20036;-62
2022/05/22 09:29:03;;;;;;;0.93;0.82;;;;;;;23.46;43.40;101515.72;5064711;28;20020;-62
2022/05/22 09:31:57;;;;;;;0.90;0.90;;;;;;;23.46;43.69;101501.69;5055709;28;20115;-62
2022/05/22 09:34:25;;;;;;;6.32;1.52;;;;;;;23.48;43.46;101505.19;5059210;28;20131;-62
2022/05/22 09:37:03;;;;;;;1.30;1.20;;;;;;;23.50;43.25;101503.47;5053753;28;20078;-62
2022/05/22 09:39:34;;;;;;;1.48;1.38;;;;;;;23.50;43.22;101500.84;5066521;28;20032;-63
2022/05/22 09:42:19;;;;;;;2.97;1.50;;;;;;;23.51;43.43;101502.59;5088878;28;20115;-62
2022/05/22 09:44:57;;;;;;;0.85;0.85;;;;;;;23.52;43.02;101499.09;5067980;28;20101;-62
2022/05/22 09:47:52;;;;;;;1.10;1.00;;;;;;;23.51;43.01;101486.81;5068399;28;20411;-63
2022/05/22 09:50:31;;;;;;;1.27;0.90;;;;;;;23.52;43.31;101493.84;5061503;28;20405;-62
2022/05/22 09:53:03;;;;;;;1.02;0.93;;;;;;;23.46;43.29;101483.28;5049141;28;20029;-62
2022/05/22 09:55:36;;;;;;;1.20;1.10;;;;;;;23.49;43.22;101488.56;5064174;28;20032;-62
2022/05/22 09:58:19;;;;;;;1.30;1.20;;;;;;;23.52;43.41;101493.84;5085125;28;20032;-62
2022/05/22 10:01:03;;;;;;;1.13;0.90;;;;;;;23.50;43.57;101490.31;5087520;28;20087;-62
2022/05/22 10:04:01;;;;;;;3.50;1.00;;;;;;;23.48;43.29;101497.31;5049985;28;20376;-62
2022/05/22 10:06:47;;;;;;;1.90;1.27;;;;;;;23.49;43.02;101493.81;5060224;28;20431;-62
2022/05/22 10:09:27;;;;;;;1.38;0.98;;;;;;;23.47;43.48;101490.28;5091500;28;20043;-62
2022/05/22 10:12:05;;;;;;;1.15;0.93;;;;;;;23.53;43.01;101482.47;5070111;28;20039;-62
2022/05/22 10:15:03;;;;;;;1.10;1.10;;;;;;;23.54;43.06;101481.59;5086471;28;20039;-62
2022/05/22 10:17:52;;;;;;;1.42;1.33;;;;;;;23.56;42.50;101485.13;5070315;28;20104;-62
2022/05/22 10:20:42;;;;;;;1.48;1.25;;;;;;;23.57;42.72;101475.50;5035019;28;20036;-62
2022/05/22 10:23:57;;;;;;;1.23;0.90;;;;;;;23.55;42.70;101480.72;5072265;28;20085;-62
2022/05/22 10:26:46;;;;;;;3.15;1.23;;;;;;;23.45;42.50;101463.13;5029259;28;20101;-62
2022/05/22 10:29:18;;;;;;;0.90;0.90;;;;;;;23.54;43.19;101475.47;5090963;28;20085;-62
2022/05/22 10:31:55;;;;;;;0.93;0.93;;;;;;;23.54;42.31;101476.34;5056856;28;20028;-62
2022/05/22 10:34:40;;;;;;;0.90;0.90;;;;;;;23.56;42.50;101479.84;5068916;28;20499;-63
2022/05/22 10:37:14;;;;;;;2.75;1.63;;;;;;;23.54;42.30;101476.34;5065693;28;20020;-63
2022/05/22 10:39:40;;;;;;;1.38;1.27;;;;;;;23.55;42.39;101472.84;5065666;28;20567;-64
2022/05/22 10:45:07;;;;;;;2.53;1.15;;;;;;;23.55;42.71;101472.84;5070592;28;20356;-62
2022/05/22 10:47:34;;;;;;;1.38;1.15;;;;;;;23.54;42.26;101471.06;5061800;28;20036;-62
2022/05/22 10:50:12;;;;;;;1.50;1.17;;;;;;;23.57;43.17;101476.38;5059854;28;20058;-62
2022/05/22 10:52:37;;;;;;;1.73;1.13;;;;;;;23.58;42.42;101472.88;5090254;28;20028;-62
2022/05/22 10:55:39;;;;;;;4.43;1.02;;;;;;;23.63;42.45;101476.41;5082640;28;20437;-63
2022/05/22 10:58:18;;;;;;;1.02;1.02;;;;;;;23.66;42.28;101469.41;5047557;28;20494;-62
2022/05/22 11:00:57;;;;;;;4.65;1.40;;;;;;;23.69;42.39;101458.91;5071221;28;20111;-64
2022/05/22 11:03:28;;;;;;;0.80;0.70;;;;;;;23.68;42.30;101454.53;5052249;28;20538;-66
2022/05/22 11:05:54;;;;;;;3.35;1.00;;;;;;;23.71;42.53;101462.44;5071854;28;20070;-66
2022/05/22 11:08:32;;;;;;;1.13;1.02;;;;;;;23.73;42.35;101455.44;5054018;28;20050;-64
2022/05/22 11:11:11;;;;;;;1.08;1.02;;;;;;;23.74;42.24;101454.56;5050957;28;20032;-65
2022/05/22 11:13:36;;;;;;;3.97;1.40;;;;;;;23.73;42.86;101450.19;5077045;28;20028;-62
2022/05/22 11:16:11;;;;;;;0.70;0.70;;;;;;;23.77;42.87;101446.72;5048739;28;20397;-62
2022/05/22 11:18:36;;;;;;;1.20;1.10;;;;;;;23.77;42.31;101442.34;5056916;28;20036;-63
2022/05/22 11:21:21;;;;;;;3.05;0.85;;;;;;;23.75;42.76;101443.19;5084992;28;20503;-62
2022/05/22 11:24:06;;;;;;;0.80;0.80;;;;;;;23.78;42.35;101437.94;5085190;28;20040;-62
2022/05/22 11:26:50;;;;;;;2.20;1.27;;;;;;;23.78;42.34;101430.06;5063847;28;20029;-63
2022/05/22 11:29:30;;;;;;;1.00;0.90;;;;;;;23.80;42.72;101436.22;5086627;28;20484;-63
2022/05/22 11:32:10;;;;;;;1.15;1.15;;;;;;;23.77;42.87;101423.94;5064596;28;20044;-63
2022/05/22 11:35:10;;;;;;;2.58;1.67;;;;;;;23.82;42.04;101431.84;5050763;28;20068;-63
2022/05/22 11:37:47;;;;;;;14.50;1.35;;;;;;;23.79;42.50;101423.94;5063940;28;20020;-63
2022/05/22 11:40:37;;;;;;;1.40;0.90;;;;;;;23.82;42.54;101418.69;5081696;28;20396;-62
2022/05/22 11:43:16;;;;;;;1.05;0.82;;;;;;;23.85;42.28;101421.34;5084161;28;20919;-62
2022/05/22 11:45:55;;;;;;;0.90;0.90;;;;;;;23.86;42.92;101417.88;5060404;28;20032;-63
2022/05/22 11:48:37;;;;;;;1.00;1.00;;;;;;;23.87;42.85;101414.38;5069714;28;20040;-63
2022/05/22 11:51:39;;;;;;;1.88;1.48;;;;;;;23.86;42.79;101407.34;5072520;28;20490;-63